sensor_id;sensor_type;location;lat;lon;timestamp;temperature;humidity
24518;DHT22;12678;51.336;12.406;2024-02-23T00:01:45;12.40;99.90
24518;DHT22;12678;51.336;12.406;2024-02-23T00:04:11;12.40;99.90
24518;DHT22;12678;51.336;12.406;2024-02-23T00:06:37;12.40;99.90
24518;DHT22;12678;51.336;12.406;2024-02-23T00:09:02;12.40;99.90
24518;DHT22;12678;51.336;12.406;2024-02-23T00:11:28;12.40;99.90
24518;DHT22;12678;51.336;12.406;2024-02-23T00:13:54;12.40;99.90
24518;DHT22;12678;51.336;12.406;2024-02-23T00:16:20;12.40;99.90
24518;DHT22;12678;51.336;12.406;2024-02-23T00:18:45;12.50;99.90
24518;DHT22;12678;51.336;12.406;2024-02-23T00:21:11;12.40;99.90
24518;DHT22;12678;51.336;12.406;2024-02-23T00:23:36;12.50;99.90
24518;DHT22;12678;51.336;12.406;2024-02-23T00:26:02;12.60;99.90
24518;DHT22;12678;51.336;12.406;2024-02-23T00:28:28;12.60;99.90
24518;DHT22;12678;51.336;12.406;2024-02-23T00:30:53;12.60;99.90
24518;DHT22;12678;51.336;12.406;2024-02-23T00:33:19;12.60;99.90
24518;DHT22;12678;51.336;12.406;2024-02-23T00:35:44;12.60;99.90
24518;DHT22;12678;51.336;12.406;2024-02-23T00:38:10;12.70;99.90
24518;DHT22;12678;51.336;12.406;2024-02-23T00:40:36;12.70;99.90
24518;DHT22;12678;51.336;12.406;2024-02-23T00:43:02;12.70;99.90
24518;DHT22;12678;51.336;12.406;2024-02-23T00:45:28;12.60;99.90
24518;DHT22;12678;51.336;12.406;2024-02-23T00:47:54;12.70;99.90
24518;DHT22;12678;51.336;12.406;2024-02-23T00:50:20;12.70;99.90
24518;DHT22;12678;51.336;12.406;2024-02-23T00:52:46;12.60;99.90
24518;DHT22;12678;51.336;12.406;2024-02-23T00:55:11;12.60;99.90
24518;DHT22;12678;51.336;12.406;2024-02-23T00:57:38;12.50;99.90
24518;DHT22;12678;51.336;12.406;2024-02-23T01:00:04;12.40;99.90
24518;DHT22;12678;51.336;12.406;2024-02-23T01:02:31;12.40;99.90
24518;DHT22;12678;51.336;12.406;2024-02-23T01:04:58;12.40;99.90
24518;DHT22;12678;51.336;12.406;2024-02-23T01:07:24;12.40;99.90
24518;DHT22;12678;51.336;12.406;2024-02-23T01:09:50;12.40;99.90
24518;DHT22;12678;51.336;12.406;2024-02-23T01:12:16;12.40;99.90
24518;DHT22;12678;51.336;12.406;2024-02-23T01:14:41;12.40;99.90
24518;DHT22;12678;51.336;12.406;2024-02-23T01:17:07;12.40;99.90
24518;DHT22;12678;51.336;12.406;2024-02-23T01:19:33;12.40;99.90
24518;DHT22;12678;51.336;12.406;2024-02-23T01:21:58;12.50;99.90
24518;DHT22;12678;51.336;12.406;2024-02-23T01:24:28;12.40;99.90
24518;DHT22;12678;51.336;12.406;2024-02-23T01:26:55;12.40;99.90
24518;DHT22;12678;51.336;12.406;2024-02-23T01:29:23;12.40;99.90
24518;DHT22;12678;51.336;12.406;2024-02-23T01:31:49;12.50;99.90
24518;DHT22;12678;51.336;12.406;2024-02-23T01:34:16;12.40;99.90
24518;DHT22;12678;51.336;12.406;2024-02-23T01:36:41;12.40;99.90
24518;DHT22;12678;51.336;12.406;2024-02-23T01:39:07;12.40;99.90
24518;DHT22;12678;51.336;12.406;2024-02-23T01:41:33;12.40;99.90
24518;DHT22;12678;51.336;12.406;2024-02-23T01:43:58;12.40;99.90
24518;DHT22;12678;51.336;12.406;2024-02-23T01:46:24;12.40;99.90
24518;DHT22;12678;51.336;12.406;2024-02-23T01:48:50;12.40;99.90
24518;DHT22;12678;51.336;12.406;2024-02-23T01:51:16;12.40;99.90
24518;DHT22;12678;51.336;12.406;2024-02-23T01:53:42;12.40;99.90
24518;DHT22;12678;51.336;12.406;2024-02-23T01:56:08;12.40;99.90
24518;DHT22;12678;51.336;12.406;2024-02-23T01:58:35;12.40;99.90
24518;DHT22;12678;51.336;12.406;2024-02-23T02:01:02;12.40;99.90
24518;DHT22;12678;51.336;12.406;2024-02-23T02:03:28;12.40;99.90
24518;DHT22;12678;51.336;12.406;2024-02-23T02:05:54;12.40;99.90
24518;DHT22;12678;51.336;12.406;2024-02-23T02:08:20;12.30;99.90
24518;DHT22;12678;51.336;12.406;2024-02-23T02:10:46;12.30;99.90
24518;DHT22;12678;51.336;12.406;2024-02-23T02:13:12;12.30;99.90
24518;DHT22;12678;51.336;12.406;2024-02-23T02:15:38;12.20;99.90
24518;DHT22;12678;51.336;12.406;2024-02-23T02:18:04;12.20;99.90
24518;DHT22;12678;51.336;12.406;2024-02-23T02:20:32;12.10;99.90
24518;DHT22;12678;51.336;12.406;2024-02-23T02:22:58;12.00;99.90
24518;DHT22;12678;51.336;12.406;2024-02-23T02:25:24;12.00;99.90
24518;DHT22;12678;51.336;12.406;2024-02-23T02:27:49;12.00;99.90
24518;DHT22;12678;51.336;12.406;2024-02-23T02:30:15;11.90;99.90
24518;DHT22;12678;51.336;12.406;2024-02-23T02:32:41;11.90;99.90
24518;DHT22;12678;51.336;12.406;2024-02-23T02:35:07;11.80;99.90
24518;DHT22;12678;51.336;12.406;2024-02-23T02:37:32;11.80;99.90
24518;DHT22;12678;51.336;12.406;2024-02-23T02:39:58;11.70;99.90
24518;DHT22;12678;51.336;12.406;2024-02-23T02:42:23;11.70;99.90
24518;DHT22;12678;51.336;12.406;2024-02-23T02:44:49;11.60;99.90
24518;DHT22;12678;51.336;12.406;2024-02-23T02:47:14;11.70;99.90
24518;DHT22;12678;51.336;12.406;2024-02-23T02:49:40;11.60;99.90
24518;DHT22;12678;51.336;12.406;2024-02-23T02:52:06;11.60;99.90
24518;DHT22;12678;51.336;12.406;2024-02-23T02:54:33;11.60;99.90
24518;DHT22;12678;51.336;12.406;2024-02-23T02:56:59;11.60;99.90
24518;DHT22;12678;51.336;12.406;2024-02-23T02:59:24;11.60;99.90
24518;DHT22;12678;51.336;12.406;2024-02-23T03:01:50;11.60;99.90
24518;DHT22;12678;51.336;12.406;2024-02-23T03:04:16;11.60;99.90
24518;DHT22;12678;51.336;12.406;2024-02-23T03:06:41;11.60;99.90
24518;DHT22;12678;51.336;12.406;2024-02-23T03:09:07;11.60;99.90
24518;DHT22;12678;51.336;12.406;2024-02-23T03:11:32;11.60;99.90
24518;DHT22;12678;51.336;12.406;2024-02-23T03:13:58;11.50;99.90
24518;DHT22;12678;51.336;12.406;2024-02-23T03:16:23;11.50;99.90
24518;DHT22;12678;51.336;12.406;2024-02-23T03:18:51;11.40;99.90
24518;DHT22;12678;51.336;12.406;2024-02-23T03:21:19;11.40;99.90
24518;DHT22;12678;51.336;12.406;2024-02-23T03:23:45;11.50;99.90
24518;DHT22;12678;51.336;12.406;2024-02-23T03:26:10;11.60;99.90
24518;DHT22;12678;51.336;12.406;2024-02-23T03:28:36;11.60;99.90
24518;DHT22;12678;51.336;12.406;2024-02-23T03:31:01;11.60;99.90
24518;DHT22;12678;51.336;12.406;2024-02-23T03:33:27;11.60;99.90
24518;DHT22;12678;51.336;12.406;2024-02-23T03:35:52;11.60;99.90
24518;DHT22;12678;51.336;12.406;2024-02-23T03:38:18;11.60;99.90
24518;DHT22;12678;51.336;12.406;2024-02-23T03:40:43;11.50;99.90
24518;DHT22;12678;51.336;12.406;2024-02-23T03:43:09;11.30;99.90
24518;DHT22;12678;51.336;12.406;2024-02-23T03:45:35;11.30;99.90
24518;DHT22;12678;51.336;12.406;2024-02-23T03:48:01;11.20;99.90
24518;DHT22;12678;51.336;12.406;2024-02-23T03:50:29;11.10;99.90
24518;DHT22;12678;51.336;12.406;2024-02-23T03:52:54;11.00;99.90
24518;DHT22;12678;51.336;12.406;2024-02-23T03:55:20;10.90;99.90
24518;DHT22;12678;51.336;12.406;2024-02-23T03:57:45;10.70;99.90
24518;DHT22;12678;51.336;12.406;2024-02-23T04:00:11;10.60;99.90
24518;DHT22;12678;51.336;12.406;2024-02-23T04:02:38;10.60;99.90
24518;DHT22;12678;51.336;12.406;2024-02-23T04:05:04;10.40;99.90
24518;DHT22;12678;51.336;12.406;2024-02-23T04:07:30;10.40;99.90
24518;DHT22;12678;51.336;12.406;2024-02-23T04:09:56;10.30;99.90
24518;DHT22;12678;51.336;12.406;2024-02-23T04:12:21;10.20;99.90
24518;DHT22;12678;51.336;12.406;2024-02-23T04:14:47;10.10;99.90
24518;DHT22;12678;51.336;12.406;2024-02-23T04:17:13;10.00;99.90
24518;DHT22;12678;51.336;12.406;2024-02-23T04:19:40;9.90;99.90
24518;DHT22;12678;51.336;12.406;2024-02-23T04:22:06;9.80;99.90
24518;DHT22;12678;51.336;12.406;2024-02-23T04:24:38;9.70;99.90
24518;DHT22;12678;51.336;12.406;2024-02-23T04:27:05;9.70;99.90
24518;DHT22;12678;51.336;12.406;2024-02-23T04:29:31;9.70;99.90
24518;DHT22;12678;51.336;12.406;2024-02-23T04:31:57;9.60;99.90
24518;DHT22;12678;51.336;12.406;2024-02-23T04:34:23;9.70;99.90
24518;DHT22;12678;51.336;12.406;2024-02-23T04:36:49;9.70;99.90
24518;DHT22;12678;51.336;12.406;2024-02-23T04:39:14;9.70;99.90
24518;DHT22;12678;51.336;12.406;2024-02-23T04:41:40;9.50;99.90
24518;DHT22;12678;51.336;12.406;2024-02-23T04:44:05;9.40;99.90
24518;DHT22;12678;51.336;12.406;2024-02-23T04:46:31;9.40;99.90
24518;DHT22;12678;51.336;12.406;2024-02-23T04:48:59;9.30;99.90
24518;DHT22;12678;51.336;12.406;2024-02-23T04:51:25;9.30;99.90
24518;DHT22;12678;51.336;12.406;2024-02-23T04:53:51;9.40;99.90
24518;DHT22;12678;51.336;12.406;2024-02-23T04:56:16;9.40;99.90
24518;DHT22;12678;51.336;12.406;2024-02-23T04:58:42;9.40;99.90
24518;DHT22;12678;51.336;12.406;2024-02-23T05:01:08;9.40;99.90
24518;DHT22;12678;51.336;12.406;2024-02-23T05:03:34;9.40;99.90
24518;DHT22;12678;51.336;12.406;2024-02-23T05:05:59;9.40;99.90
24518;DHT22;12678;51.336;12.406;2024-02-23T05:08:25;9.30;99.90
24518;DHT22;12678;51.336;12.406;2024-02-23T05:10:52;9.30;99.90
24518;DHT22;12678;51.336;12.406;2024-02-23T05:13:18;9.30;99.90
24518;DHT22;12678;51.336;12.406;2024-02-23T05:15:44;9.20;99.90
24518;DHT22;12678;51.336;12.406;2024-02-23T05:18:09;9.20;99.90
24518;DHT22;12678;51.336;12.406;2024-02-23T05:20:35;9.10;99.90
24518;DHT22;12678;51.336;12.406;2024-02-23T05:23:00;9.10;99.90
24518;DHT22;12678;51.336;12.406;2024-02-23T05:25:26;9.10;99.90
24518;DHT22;12678;51.336;12.406;2024-02-23T05:27:52;9.20;99.90
24518;DHT22;12678;51.336;12.406;2024-02-23T05:30:17;9.20;99.90
24518;DHT22;12678;51.336;12.406;2024-02-23T05:32:43;9.30;99.90
24518;DHT22;12678;51.336;12.406;2024-02-23T05:35:09;9.30;99.90
24518;DHT22;12678;51.336;12.406;2024-02-23T05:37:35;9.20;99.90
24518;DHT22;12678;51.336;12.406;2024-02-23T05:40:01;9.30;99.90
24518;DHT22;12678;51.336;12.406;2024-02-23T05:42:29;9.40;99.90
24518;DHT22;12678;51.336;12.406;2024-02-23T05:44:55;9.30;99.90
24518;DHT22;12678;51.336;12.406;2024-02-23T05:47:21;9.40;99.90
24518;DHT22;12678;51.336;12.406;2024-02-23T05:49:47;9.40;99.90
24518;DHT22;12678;51.336;12.406;2024-02-23T05:52:12;9.40;99.90
24518;DHT22;12678;51.336;12.406;2024-02-23T05:54:38;9.30;99.90
24518;DHT22;12678;51.336;12.406;2024-02-23T05:57:04;9.20;99.90
24518;DHT22;12678;51.336;12.406;2024-02-23T05:59:30;9.20;99.90
24518;DHT22;12678;51.336;12.406;2024-02-23T06:01:55;9.20;99.90
24518;DHT22;12678;51.336;12.406;2024-02-23T06:04:24;9.10;99.90
24518;DHT22;12678;51.336;12.406;2024-02-23T06:06:50;9.10;99.90
24518;DHT22;12678;51.336;12.406;2024-02-23T06:09:15;9.10;99.90
24518;DHT22;12678;51.336;12.406;2024-02-23T06:11:41;9.10;99.90
24518;DHT22;12678;51.336;12.406;2024-02-23T06:14:07;9.00;99.90
24518;DHT22;12678;51.336;12.406;2024-02-23T06:16:33;9.00;99.90
24518;DHT22;12678;51.336;12.406;2024-02-23T06:18:59;9.00;99.90
24518;DHT22;12678;51.336;12.406;2024-02-23T06:21:26;8.90;99.90
24518;DHT22;12678;51.336;12.406;2024-02-23T06:23:51;8.80;99.90
24518;DHT22;12678;51.336;12.406;2024-02-23T06:26:18;8.80;99.90
24518;DHT22;12678;51.336;12.406;2024-02-23T06:28:43;8.80;99.90
24518;DHT22;12678;51.336;12.406;2024-02-23T06:31:09;8.80;99.90
24518;DHT22;12678;51.336;12.406;2024-02-23T06:33:35;8.70;99.90
24518;DHT22;12678;51.336;12.406;2024-02-23T06:36:01;8.60;99.90
24518;DHT22;12678;51.336;12.406;2024-02-23T06:38:28;8.60;99.90
24518;DHT22;12678;51.336;12.406;2024-02-23T06:40:54;8.50;99.90
24518;DHT22;12678;51.336;12.406;2024-02-23T06:43:21;8.50;99.90
24518;DHT22;12678;51.336;12.406;2024-02-23T06:45:46;8.50;99.90
24518;DHT22;12678;51.336;12.406;2024-02-23T06:48:12;8.60;99.90
24518;DHT22;12678;51.336;12.406;2024-02-23T06:50:37;8.50;99.90
24518;DHT22;12678;51.336;12.406;2024-02-23T06:53:03;8.50;99.90
24518;DHT22;12678;51.336;12.406;2024-02-23T06:55:28;8.50;99.90
24518;DHT22;12678;51.336;12.406;2024-02-23T06:57:54;8.40;99.90
24518;DHT22;12678;51.336;12.406;2024-02-23T07:00:21;8.30;99.90
24518;DHT22;12678;51.336;12.406;2024-02-23T07:02:49;8.30;99.90
24518;DHT22;12678;51.336;12.406;2024-02-23T07:05:15;8.40;99.90
24518;DHT22;12678;51.336;12.406;2024-02-23T07:07:40;8.30;99.90
24518;DHT22;12678;51.336;12.406;2024-02-23T07:10:06;8.40;99.90
24518;DHT22;12678;51.336;12.406;2024-02-23T07:12:32;8.40;99.90
24518;DHT22;12678;51.336;12.406;2024-02-23T07:14:58;8.30;99.90
24518;DHT22;12678;51.336;12.406;2024-02-23T07:17:24;8.30;99.90
24518;DHT22;12678;51.336;12.406;2024-02-23T07:19:49;8.30;99.90
24518;DHT22;12678;51.336;12.406;2024-02-23T07:22:16;8.40;99.90
24518;DHT22;12678;51.336;12.406;2024-02-23T07:24:43;8.40;99.90
24518;DHT22;12678;51.336;12.406;2024-02-23T07:27:09;8.40;99.90
24518;DHT22;12678;51.336;12.406;2024-02-23T07:29:35;8.40;99.90
24518;DHT22;12678;51.336;12.406;2024-02-23T07:32:00;8.40;99.90
24518;DHT22;12678;51.336;12.406;2024-02-23T07:34:26;8.40;99.90
24518;DHT22;12678;51.336;12.406;2024-02-23T07:36:52;8.50;99.90
24518;DHT22;12678;51.336;12.406;2024-02-23T07:39:18;8.40;99.90
24518;DHT22;12678;51.336;12.406;2024-02-23T07:41:44;8.50;99.90
24518;DHT22;12678;51.336;12.406;2024-02-23T07:44:09;8.50;99.90
24518;DHT22;12678;51.336;12.406;2024-02-23T07:46:35;8.50;99.90
24518;DHT22;12678;51.336;12.406;2024-02-23T07:49:00;8.50;99.90
24518;DHT22;12678;51.336;12.406;2024-02-23T07:51:26;8.50;99.90
24518;DHT22;12678;51.336;12.406;2024-02-23T07:53:52;8.50;99.90
24518;DHT22;12678;51.336;12.406;2024-02-23T07:56:17;8.50;99.90
24518;DHT22;12678;51.336;12.406;2024-02-23T07:58:43;8.40;99.90
24518;DHT22;12678;51.336;12.406;2024-02-23T08:01:08;8.40;99.90
24518;DHT22;12678;51.336;12.406;2024-02-23T08:03:34;8.50;99.90
24518;DHT22;12678;51.336;12.406;2024-02-23T08:05:59;8.60;99.90
24518;DHT22;12678;51.336;12.406;2024-02-23T08:08:26;8.60;99.90
24518;DHT22;12678;51.336;12.406;2024-02-23T08:10:53;8.60;99.90
24518;DHT22;12678;51.336;12.406;2024-02-23T08:13:20;8.60;99.90
24518;DHT22;12678;51.336;12.406;2024-02-23T08:15:45;8.60;99.90
24518;DHT22;12678;51.336;12.406;2024-02-23T08:18:11;8.60;99.90
24518;DHT22;12678;51.336;12.406;2024-02-23T08:20:36;8.70;99.90
24518;DHT22;12678;51.336;12.406;2024-02-23T08:23:02;8.60;99.90
24518;DHT22;12678;51.336;12.406;2024-02-23T08:25:28;8.70;99.90
24518;DHT22;12678;51.336;12.406;2024-02-23T08:27:57;8.80;99.90
24518;DHT22;12678;51.336;12.406;2024-02-23T08:30:24;8.90;99.90
24518;DHT22;12678;51.336;12.406;2024-02-23T08:32:50;8.90;99.90
24518;DHT22;12678;51.336;12.406;2024-02-23T08:35:15;8.90;99.90
24518;DHT22;12678;51.336;12.406;2024-02-23T08:37:41;9.00;99.90
24518;DHT22;12678;51.336;12.406;2024-02-23T08:40:08;9.00;99.90
24518;DHT22;12678;51.336;12.406;2024-02-23T08:42:34;9.00;99.90
24518;DHT22;12678;51.336;12.406;2024-02-23T08:45:00;9.10;99.90
24518;DHT22;12678;51.336;12.406;2024-02-23T08:47:25;9.10;99.90
24518;DHT22;12678;51.336;12.406;2024-02-23T08:49:53;9.20;99.90
24518;DHT22;12678;51.336;12.406;2024-02-23T08:52:19;9.20;99.90
24518;DHT22;12678;51.336;12.406;2024-02-23T08:54:44;9.30;99.90
24518;DHT22;12678;51.336;12.406;2024-02-23T08:57:10;9.30;99.90
24518;DHT22;12678;51.336;12.406;2024-02-23T08:59:35;9.40;99.90
24518;DHT22;12678;51.336;12.406;2024-02-23T09:02:01;9.40;99.90
24518;DHT22;12678;51.336;12.406;2024-02-23T09:04:26;9.50;99.90
24518;DHT22;12678;51.336;12.406;2024-02-23T09:06:52;9.50;99.90
24518;DHT22;12678;51.336;12.406;2024-02-23T09:09:19;9.60;99.90
24518;DHT22;12678;51.336;12.406;2024-02-23T09:11:44;9.60;99.90
24518;DHT22;12678;51.336;12.406;2024-02-23T09:14:10;9.50;99.90
24518;DHT22;12678;51.336;12.406;2024-02-23T09:16:35;9.60;99.90
24518;DHT22;12678;51.336;12.406;2024-02-23T09:19:01;9.60;99.90
24518;DHT22;12678;51.336;12.406;2024-02-23T09:21:26;9.70;99.90
24518;DHT22;12678;51.336;12.406;2024-02-23T09:23:52;9.70;99.90
24518;DHT22;12678;51.336;12.406;2024-02-23T09:26:18;9.60;99.90
24518;DHT22;12678;51.336;12.406;2024-02-23T09:28:44;9.70;99.90
24518;DHT22;12678;51.336;12.406;2024-02-23T09:31:10;9.70;99.90
24518;DHT22;12678;51.336;12.406;2024-02-23T09:33:36;9.70;99.90
24518;DHT22;12678;51.336;12.406;2024-02-23T09:36:02;9.80;99.90
24518;DHT22;12678;51.336;12.406;2024-02-23T09:38:28;9.90;99.90
24518;DHT22;12678;51.336;12.406;2024-02-23T09:40:53;9.90;99.90
24518;DHT22;12678;51.336;12.406;2024-02-23T09:43:21;10.00;99.90
24518;DHT22;12678;51.336;12.406;2024-02-23T09:45:51;10.00;99.90
24518;DHT22;12678;51.336;12.406;2024-02-23T09:48:18;9.80;99.90
24518;DHT22;12678;51.336;12.406;2024-02-23T09:50:45;9.90;99.90
24518;DHT22;12678;51.336;12.406;2024-02-23T09:53:13;9.90;99.90
24518;DHT22;12678;51.336;12.406;2024-02-23T09:55:39;10.10;99.90
24518;DHT22;12678;51.336;12.406;2024-02-23T09:58:06;10.10;99.90
24518;DHT22;12678;51.336;12.406;2024-02-23T10:00:34;10.10;99.90
24518;DHT22;12678;51.336;12.406;2024-02-23T10:03:02;10.10;99.90
24518;DHT22;12678;51.336;12.406;2024-02-23T10:05:30;10.20;99.90
24518;DHT22;12678;51.336;12.406;2024-02-23T10:07:59;10.20;99.90
24518;DHT22;12678;51.336;12.406;2024-02-23T10:10:32;10.20;99.90
24518;DHT22;12678;51.336;12.406;2024-02-23T10:12:59;10.10;99.90
24518;DHT22;12678;51.336;12.406;2024-02-23T10:15:25;10.10;99.90
24518;DHT22;12678;51.336;12.406;2024-02-23T10:17:51;10.20;99.90
24518;DHT22;12678;51.336;12.406;2024-02-23T10:20:16;10.20;99.90
24518;DHT22;12678;51.336;12.406;2024-02-23T10:22:42;10.20;99.90
24518;DHT22;12678;51.336;12.406;2024-02-23T10:25:09;10.20;99.90
24518;DHT22;12678;51.336;12.406;2024-02-23T10:27:34;10.30;99.90
24518;DHT22;12678;51.336;12.406;2024-02-23T10:30:00;10.30;99.90
24518;DHT22;12678;51.336;12.406;2024-02-23T10:32:29;10.40;99.90
24518;DHT22;12678;51.336;12.406;2024-02-23T10:35:00;10.60;99.90
24518;DHT22;12678;51.336;12.406;2024-02-23T10:37:26;10.70;99.90
24518;DHT22;12678;51.336;12.406;2024-02-23T10:39:57;10.60;99.90
24518;DHT22;12678;51.336;12.406;2024-02-23T10:42:24;10.70;99.90
24518;DHT22;12678;51.336;12.406;2024-02-23T10:44:50;10.60;99.90
24518;DHT22;12678;51.336;12.406;2024-02-23T10:47:16;10.50;99.90
24518;DHT22;12678;51.336;12.406;2024-02-23T10:49:44;10.50;99.90
24518;DHT22;12678;51.336;12.406;2024-02-23T10:52:11;10.60;99.90
24518;DHT22;12678;51.336;12.406;2024-02-23T10:54:39;10.60;99.90
24518;DHT22;12678;51.336;12.406;2024-02-23T10:57:05;10.70;99.90
24518;DHT22;12678;51.336;12.406;2024-02-23T10:59:31;10.70;99.90
24518;DHT22;12678;51.336;12.406;2024-02-23T11:01:58;10.60;99.90
24518;DHT22;12678;51.336;12.406;2024-02-23T11:04:26;10.50;99.90
24518;DHT22;12678;51.336;12.406;2024-02-23T11:06:54;10.50;99.90
24518;DHT22;12678;51.336;12.406;2024-02-23T11:09:27;10.50;99.90
24518;DHT22;12678;51.336;12.406;2024-02-23T11:11:57;10.50;99.90
24518;DHT22;12678;51.336;12.406;2024-02-23T11:14:35;10.40;99.90
24518;DHT22;12678;51.336;12.406;2024-02-23T11:17:01;10.40;99.90
24518;DHT22;12678;51.336;12.406;2024-02-23T11:19:38;10.40;99.90
24518;DHT22;12678;51.336;12.406;2024-02-23T11:22:04;10.30;99.90
24518;DHT22;12678;51.336;12.406;2024-02-23T11:24:31;10.30;99.90
24518;DHT22;12678;51.336;12.406;2024-02-23T11:26:58;10.40;99.90
24518;DHT22;12678;51.336;12.406;2024-02-23T11:29:26;10.30;99.90
24518;DHT22;12678;51.336;12.406;2024-02-23T11:31:53;10.40;99.90
24518;DHT22;12678;51.336;12.406;2024-02-23T11:34:26;10.40;99.90
24518;DHT22;12678;51.336;12.406;2024-02-23T11:36:52;10.20;99.90
24518;DHT22;12678;51.336;12.406;2024-02-23T11:39:22;10.30;99.90
24518;DHT22;12678;51.336;12.406;2024-02-23T11:41:51;10.30;99.90
24518;DHT22;12678;51.336;12.406;2024-02-23T11:44:17;10.30;99.90
24518;DHT22;12678;51.336;12.406;2024-02-23T11:46:46;10.40;99.90
24518;DHT22;12678;51.336;12.406;2024-02-23T11:49:14;10.50;99.90
24518;DHT22;12678;51.336;12.406;2024-02-23T11:51:40;10.50;99.90
24518;DHT22;12678;51.336;12.406;2024-02-23T11:54:06;10.40;99.90
24518;DHT22;12678;51.336;12.406;2024-02-23T11:56:32;10.40;99.90
24518;DHT22;12678;51.336;12.406;2024-02-23T11:58:57;10.50;99.90
24518;DHT22;12678;51.336;12.406;2024-02-23T12:01:24;10.40;99.90
24518;DHT22;12678;51.336;12.406;2024-02-23T12:03:50;10.40;99.90
24518;DHT22;12678;51.336;12.406;2024-02-23T12:06:17;10.50;99.90
24518;DHT22;12678;51.336;12.406;2024-02-23T12:08:44;10.50;99.90
24518;DHT22;12678;51.336;12.406;2024-02-23T12:11:11;10.60;99.90
24518;DHT22;12678;51.336;12.406;2024-02-23T12:13:37;10.50;99.90
24518;DHT22;12678;51.336;12.406;2024-02-23T12:16:04;10.60;99.90
24518;DHT22;12678;51.336;12.406;2024-02-23T12:18:33;10.50;99.90
24518;DHT22;12678;51.336;12.406;2024-02-23T12:21:04;10.40;99.90
24518;DHT22;12678;51.336;12.406;2024-02-23T12:23:43;10.40;99.90
24518;DHT22;12678;51.336;12.406;2024-02-23T12:26:10;10.30;99.90
24518;DHT22;12678;51.336;12.406;2024-02-23T12:28:36;10.40;99.90
24518;DHT22;12678;51.336;12.406;2024-02-23T12:31:03;10.40;99.90
24518;DHT22;12678;51.336;12.406;2024-02-23T12:33:31;10.40;99.90
24518;DHT22;12678;51.336;12.406;2024-02-23T12:35:58;10.40;99.90
24518;DHT22;12678;51.336;12.406;2024-02-23T12:38:24;10.50;99.90
24518;DHT22;12678;51.336;12.406;2024-02-23T12:40:50;10.50;99.90
24518;DHT22;12678;51.336;12.406;2024-02-23T12:43:18;10.60;99.90
24518;DHT22;12678;51.336;12.406;2024-02-23T12:45:46;10.70;99.90
24518;DHT22;12678;51.336;12.406;2024-02-23T12:48:17;10.70;99.90
24518;DHT22;12678;51.336;12.406;2024-02-23T12:50:43;10.70;99.90
24518;DHT22;12678;51.336;12.406;2024-02-23T12:53:34;10.80;99.90
24518;DHT22;12678;51.336;12.406;2024-02-23T12:56:09;10.70;99.90
24518;DHT22;12678;51.336;12.406;2024-02-23T12:58:36;10.50;99.90
24518;DHT22;12678;51.336;12.406;2024-02-23T13:01:02;10.50;99.90
24518;DHT22;12678;51.336;12.406;2024-02-23T13:03:28;10.50;99.90
24518;DHT22;12678;51.336;12.406;2024-02-23T13:05:55;10.40;99.90
24518;DHT22;12678;51.336;12.406;2024-02-23T13:08:21;10.50;99.90
24518;DHT22;12678;51.336;12.406;2024-02-23T13:10:48;10.60;99.90
24518;DHT22;12678;51.336;12.406;2024-02-23T13:13:13;10.60;99.90
24518;DHT22;12678;51.336;12.406;2024-02-23T13:15:46;10.60;99.90
24518;DHT22;12678;51.336;12.406;2024-02-23T13:18:12;10.60;99.90
24518;DHT22;12678;51.336;12.406;2024-02-23T13:20:38;10.60;99.90
24518;DHT22;12678;51.336;12.406;2024-02-23T13:23:05;10.60;99.90
24518;DHT22;12678;51.336;12.406;2024-02-23T13:25:36;10.60;99.90
24518;DHT22;12678;51.336;12.406;2024-02-23T13:28:03;10.50;99.90
24518;DHT22;12678;51.336;12.406;2024-02-23T13:30:30;10.60;99.90
24518;DHT22;12678;51.336;12.406;2024-02-23T13:32:55;10.60;99.90
24518;DHT22;12678;51.336;12.406;2024-02-23T13:35:21;10.60;99.90
24518;DHT22;12678;51.336;12.406;2024-02-23T13:37:47;10.50;99.90
24518;DHT22;12678;51.336;12.406;2024-02-23T13:40:14;10.50;99.90
24518;DHT22;12678;51.336;12.406;2024-02-23T13:42:40;10.40;99.90
24518;DHT22;12678;51.336;12.406;2024-02-23T13:45:06;10.40;99.90
24518;DHT22;12678;51.336;12.406;2024-02-23T13:47:32;10.40;99.90
24518;DHT22;12678;51.336;12.406;2024-02-23T13:49:58;10.40;99.90
24518;DHT22;12678;51.336;12.406;2024-02-23T13:52:24;10.40;99.90
24518;DHT22;12678;51.336;12.406;2024-02-23T13:54:50;10.40;99.90
24518;DHT22;12678;51.336;12.406;2024-02-23T13:57:17;10.50;99.90
24518;DHT22;12678;51.336;12.406;2024-02-23T13:59:43;10.40;99.90
24518;DHT22;12678;51.336;12.406;2024-02-23T14:02:09;10.50;99.90
24518;DHT22;12678;51.336;12.406;2024-02-23T14:04:35;10.40;99.90
24518;DHT22;12678;51.336;12.406;2024-02-23T14:07:01;10.40;99.90
24518;DHT22;12678;51.336;12.406;2024-02-23T14:09:26;10.40;99.90
24518;DHT22;12678;51.336;12.406;2024-02-23T14:11:52;10.30;99.90
24518;DHT22;12678;51.336;12.406;2024-02-23T14:14:17;10.40;99.90
24518;DHT22;12678;51.336;12.406;2024-02-23T14:16:43;10.30;99.90
24518;DHT22;12678;51.336;12.406;2024-02-23T14:19:09;10.20;99.90
24518;DHT22;12678;51.336;12.406;2024-02-23T14:21:35;10.20;99.90
24518;DHT22;12678;51.336;12.406;2024-02-23T14:24:02;10.20;99.90
24518;DHT22;12678;51.336;12.406;2024-02-23T14:26:28;10.10;99.90
24518;DHT22;12678;51.336;12.406;2024-02-23T14:28:53;10.10;99.90
24518;DHT22;12678;51.336;12.406;2024-02-23T14:31:19;10.20;99.90
24518;DHT22;12678;51.336;12.406;2024-02-23T14:33:44;10.20;99.90
24518;DHT22;12678;51.336;12.406;2024-02-23T14:36:10;10.30;99.90
24518;DHT22;12678;51.336;12.406;2024-02-23T14:38:36;10.30;99.90
24518;DHT22;12678;51.336;12.406;2024-02-23T14:41:01;10.10;99.90
24518;DHT22;12678;51.336;12.406;2024-02-23T14:43:27;10.10;99.90
24518;DHT22;12678;51.336;12.406;2024-02-23T14:45:52;10.00;99.90
24518;DHT22;12678;51.336;12.406;2024-02-23T14:48:18;10.00;99.90
24518;DHT22;12678;51.336;12.406;2024-02-23T14:50:44;10.00;99.90
24518;DHT22;12678;51.336;12.406;2024-02-23T14:53:09;10.00;99.90
24518;DHT22;12678;51.336;12.406;2024-02-23T14:55:36;10.10;99.90
24518;DHT22;12678;51.336;12.406;2024-02-23T14:58:02;9.90;99.90
24518;DHT22;12678;51.336;12.406;2024-02-23T15:00:28;9.90;99.90
24518;DHT22;12678;51.336;12.406;2024-02-23T15:02:55;9.90;99.90
24518;DHT22;12678;51.336;12.406;2024-02-23T15:05:22;9.90;99.90
24518;DHT22;12678;51.336;12.406;2024-02-23T15:07:48;9.80;99.90
24518;DHT22;12678;51.336;12.406;2024-02-23T15:10:13;9.90;99.90
24518;DHT22;12678;51.336;12.406;2024-02-23T15:12:39;9.80;99.90
24518;DHT22;12678;51.336;12.406;2024-02-23T15:15:06;9.80;99.90
24518;DHT22;12678;51.336;12.406;2024-02-23T15:17:32;9.80;99.90